Indianapolis, Iowa
Current Conditions -  °F | °C
As of 8:35 PM on Sunday 23 Nov 2014 (Local Time) from KOOA Reporting Station
Overcast Overcast  
Wind Chill: 31°   Ceiling: 800
Heat Index: 42°   Visibility: 7mi
Dew Point: 40°   Wind: 29mph
Humidity: 93%   Direction: 330°NNW
Pressure: 29.29"   Gusts: 35mph
Location:  41.3798°N, 92.3541°W
Report Text: KOOA 240235Z AUTO 33025G30KT 7SM OVC008 06/05 A2929 RMK AO2 P0001 T00550045
Loading
Personal Weather Stations






























Interactive Weather Map New forecast layout! Learn more

10-Day Weather Forecast

Advertisements
Track Severe Weather on mobile